x

Matinicus Rock, Me (mism1) Weather Station

10:00 - Sun 25th Sep 2016 All times are EDT. -4 hours from GMT.

  • Wind
    21mph, 22mph gusts
  • Air Temp 50°f
  • Sea Pressure 1017.3mb
  • Matinicus Rock, Me
  • Matinicus Rock, Me

More Historic Weather Station data

Upgrade to MSW Pro to gain access to the past 30 days of data for over 8000 Wavebouys and Weather Stations around the globe.

Join Pro

Comparision Forecast

View Surf forecast
   
dim. 09/25 10:00 21 22 mph 1017.3mb 50f
9:00 24 25 mph 1017.1mb 49f
8:00 25 26 mph 1016.8mb 50f
7:00 28 29 mph 1016.6mb 50f
6:00 22 24 mph 1016.8mb 49f
5:00 25 29 mph 1016.4mb 50f
4:00 24 25 mph 1016.4mb 51f
3:00 21 23 mph 1016.5mb 51f
2:00 23 24 mph 1016.5mb 51f
1:00 24 26 mph 1016.4mb 52f
12:00 32 34 mph 1016.2mb 53f
sam. 09/24 11:00 24 26 mph 1016.3mb 55f
10:00 16 18 mph 1016.1mb 56f
9:00 16 17 mph 1015.8mb 58f
8:00 10 11 mph 1016.2mb 58f
7:00 17 18 mph 1015.7mb 58f
6:00 16 17 mph 1015.5mb 59f
5:00 10 11 mph 1015.5mb 58f
4:00 14
mph
1015.7mb 58f
3:00 20 22 mph 1015.9mb 58f
2:00 22 24 mph 1016.4mb 58f
1:00 17 20 mph 1017mb 57f
12:00 14 15 mph 1017.9mb 55f
11:00 15 16 mph 1018.3mb 54f
10:00 14 15 mph 1018.3mb 53f
9:00 18 21 mph 1018.4mb 53f
8:00 18 20 mph 1018.6mb 53f
7:00 15 17 mph 1018.4mb 53f
6:00 11 13 mph 1018.3mb 54f
5:00 9 10 mph 1017.7mb 55f
4:00 6 7 mph 1017.4mb 55f
3:00 13 14 mph 1018.1mb 55f
2:00 15 16 mph 1017.8mb 55f
1:00 15 17 mph 1017.9mb 55f
12:00 18 21 mph 1017.1mb 55f
ven. 09/23 11:00 17 18 mph 1017.4mb 55f
10:00 18 20 mph 1017.3mb 56f
9:00 18 22 mph 1017.4mb 56f
8:00 20 23 mph 1017mb 57f
7:00 21 23 mph 1016.5mb 57f
6:00 16 17 mph 1016.2mb 57f
5:00 21 24 mph 1015.5mb 57f
4:00 24 26 mph 1014.8mb 58f
3:00 24 26 mph 1014.5mb 58f
2:00 11 13 mph 1013.9mb 60f
1:00 13 14 mph 1013.8mb 61f
12:00 13 14 mph 1013.6mb 61f
11:00 21 22 mph 1013.4mb 61f
10:00 13 14 mph 1013.9mb 62f
9:00 18 20 mph 1014.4mb 62f
8:00 25 26 mph 1014.2mb 63f
7:00 25 28 mph 1014.2mb 63f
6:00 22 24 mph 1014.5mb 63f
5:00 25 28 mph 1014.5mb 63f
4:00 23 24 mph 1015.2mb 63f
3:00 18 20 mph 1016.1mb 63f
2:00 22
mph
1016.2mb 62f
1:00 20
mph
1016.8mb 62f
12:00 21 22 mph 1017.3mb 62f
jeu. 09/22 11:00 18 20 mph 1018mb 62f
10:00 15 16 mph 1018.5mb 61f
9:00 13
mph
1018.7mb 62f
8:00 14
mph
1019.1mb 63f
7:00 14
mph
1019.1mb 64f
6:00 11
mph
1019.2mb 63f
5:00 10 11 mph 1019.3mb 64f
4:00 14
mph
1019.7mb 63f
3:00 14
mph
1019.9mb 63f
2:00 10 11 mph 1020.3mb 65f
1:00 5
mph
1020.8mb 65f
12:00 3 5 mph 1021.1mb 65f
11:00 3 5 mph 1021.6mb 65f
10:00 2 5 mph 1021.5mb 63f
9:00 8 9 mph 1021.7mb 65f
8:00 6 8 mph 1021.2mb 63f
7:00 5 7 mph 1020.8mb 65f
6:00 8 10 mph 1020.1mb 63f
5:00 9 11 mph 1020mb 63f
4:00 14 15 mph 1019.6mb 62f
3:00 14
mph
1019.2mb 64f
2:00 16
mph
1019.4mb 64f
1:00 18 20 mph 1019.3mb 65f
12:00 18 20 mph 1019.1mb 66f
mer. 09/21 11:00 16
mph
1019.2mb 64f
10:00 18 20 mph 1019mb 64f
9:00 21 22 mph 1019mb 65f
8:00 20 21 mph 1019mb 63f
7:00 17
mph
1019mb 64f
6:00 17 18 mph 1018.6mb 64f
5:00 18 20 mph 1018.3mb 65f
4:00 17
mph
1018.4mb 65f